sensor_id;sensor_type;location;lat;lon;timestamp;temperature;humidity
12289;DHT22;6207;49.308;7.336;2022-10-16T02:55:41;14.10;99.90
12289;DHT22;6207;49.308;7.336;2022-10-16T02:58:56;14.10;99.90
12289;DHT22;6207;49.308;7.336;2022-10-16T03:01:33;14.10;99.90
12289;DHT22;6207;49.308;7.336;2022-10-16T03:04:21;13.90;99.90
12289;DHT22;6207;49.308;7.336;2022-10-16T11:07:03;18.40;99.90
12289;DHT22;6207;49.308;7.336;2022-10-16T11:09:47;18.30;99.90
12289;DHT22;6207;49.308;7.336;2022-10-16T11:15:07;18.40;99.90
12289;DHT22;6207;49.308;7.336;2022-10-16T11:20:32;18.40;99.90
12289;DHT22;6207;49.308;7.336;2022-10-16T11:23:25;18.30;99.90
12289;DHT22;6207;49.308;7.336;2022-10-16T11:25:56;18.40;99.90
12289;DHT22;6207;49.308;7.336;2022-10-16T11:28:33;18.40;99.90
12289;DHT22;6207;49.308;7.336;2022-10-16T11:31:13;18.30;99.90
12289;DHT22;6207;49.308;7.336;2022-10-16T11:36:38;18.10;99.90
12289;DHT22;6207;49.308;7.336;2022-10-16T11:39:16;18.20;99.90
12289;DHT22;6207;49.308;7.336;2022-10-16T11:41:52;18.30;99.90
12289;DHT22;6207;49.308;7.336;2022-10-16T11:47:42;18.60;99.90
12289;DHT22;6207;49.308;7.336;2022-10-16T11:50:46;18.90;99.90
12289;DHT22;6207;49.308;7.336;2022-10-16T11:56:20;19.00;99.90
12289;DHT22;6207;49.308;7.336;2022-10-16T12:01:51;18.90;99.90
12289;DHT22;6207;49.308;7.336;2022-10-16T12:07:08;18.80;99.90
12289;DHT22;6207;49.308;7.336;2022-10-16T12:09:38;18.90;99.90
12289;DHT22;6207;49.308;7.336;2022-10-16T12:12:28;19.00;99.90
12289;DHT22;6207;49.308;7.336;2022-10-16T12:15:42;19.00;99.90
12289;DHT22;6207;49.308;7.336;2022-10-16T12:18:25;19.10;99.90
12289;DHT22;6207;49.308;7.336;2022-10-16T12:20:56;19.00;99.90
12289;DHT22;6207;49.308;7.336;2022-10-16T12:23:55;18.90;99.90
12289;DHT22;6207;49.308;7.336;2022-10-16T12:26:27;18.80;99.90
12289;DHT22;6207;49.308;7.336;2022-10-16T12:28:55;18.70;99.90
12289;DHT22;6207;49.308;7.336;2022-10-16T12:31:22;18.70;99.90
12289;DHT22;6207;49.308;7.336;2022-10-16T12:33:59;18.70;99.90
12289;DHT22;6207;49.308;7.336;2022-10-16T12:36:32;18.70;99.90
12289;DHT22;6207;49.308;7.336;2022-10-16T12:39:00;18.90;99.90
12289;DHT22;6207;49.308;7.336;2022-10-16T12:41:32;19.00;99.90
12289;DHT22;6207;49.308;7.336;2022-10-16T12:44:00;19.10;99.90
12289;DHT22;6207;49.308;7.336;2022-10-16T12:49:20;19.10;99.90
12289;DHT22;6207;49.308;7.336;2022-10-16T12:51:47;19.80;99.90
12289;DHT22;6207;49.308;7.336;2022-10-16T12:54:19;19.10;99.90
12289;DHT22;6207;49.308;7.336;2022-10-16T12:59:51;19.00;99.90
12289;DHT22;6207;49.308;7.336;2022-10-16T13:02:40;19.00;99.90
12289;DHT22;6207;49.308;7.336;2022-10-16T13:22:28;18.30;99.90
12289;DHT22;6207;49.308;7.336;2022-10-16T13:27:55;18.40;99.90
12289;DHT22;6207;49.308;7.336;2022-10-16T13:30:26;18.40;99.90
12289;DHT22;6207;49.308;7.336;2022-10-16T13:33:15;18.50;99.90
12289;DHT22;6207;49.308;7.336;2022-10-16T13:35:55;18.60;99.90
12289;DHT22;6207;49.308;7.336;2022-10-16T13:38:30;18.70;99.90
12289;DHT22;6207;49.308;7.336;2022-10-16T13:41:01;18.60;99.90
12289;DHT22;6207;49.308;7.336;2022-10-16T13:43:33;18.70;99.90
12289;DHT22;6207;49.308;7.336;2022-10-16T13:46:14;18.90;99.90
12289;DHT22;6207;49.308;7.336;2022-10-16T13:48:41;19.00;99.90
12289;DHT22;6207;49.308;7.336;2022-10-16T13:51:18;18.90;99.90
12289;DHT22;6207;49.308;7.336;2022-10-16T13:53:45;19.10;99.90
12289;DHT22;6207;49.308;7.336;2022-10-16T13:56:16;19.10;99.90
12289;DHT22;6207;49.308;7.336;2022-10-16T13:58:43;19.00;99.90
12289;DHT22;6207;49.308;7.336;2022-10-16T14:04:07;19.10;99.90
12289;DHT22;6207;49.308;7.336;2022-10-16T14:06:36;19.10;99.90
12289;DHT22;6207;49.308;7.336;2022-10-16T14:12:03;19.10;99.90
12289;DHT22;6207;49.308;7.336;2022-10-16T14:14:51;19.10;99.90
12289;DHT22;6207;49.308;7.336;2022-10-16T14:17:22;19.20;99.90
12289;DHT22;6207;49.308;7.336;2022-10-16T14:19:51;19.20;99.90
12289;DHT22;6207;49.308;7.336;2022-10-16T14:22:35;18.90;99.90
12289;DHT22;6207;49.308;7.336;2022-10-16T14:30:58;19.10;99.90
12289;DHT22;6207;49.308;7.336;2022-10-16T14:38:39;19.20;99.90
12289;DHT22;6207;49.308;7.336;2022-10-16T14:41:07;19.20;99.90
12289;DHT22;6207;49.308;7.336;2022-10-16T14:43:44;19.30;99.90
12289;DHT22;6207;49.308;7.336;2022-10-16T14:46:21;19.40;99.90
12289;DHT22;6207;49.308;7.336;2022-10-16T14:48:58;19.60;99.90
12289;DHT22;6207;49.308;7.336;2022-10-16T14:51:27;19.60;99.90
12289;DHT22;6207;49.308;7.336;2022-10-16T14:53:53;19.40;99.90
12289;DHT22;6207;49.308;7.336;2022-10-16T14:56:30;19.60;99.90
12289;DHT22;6207;49.308;7.336;2022-10-16T14:58:59;19.40;99.90
12289;DHT22;6207;49.308;7.336;2022-10-16T15:01:27;19.10;99.90
12289;DHT22;6207;49.308;7.336;2022-10-16T15:03:54;19.00;99.90
12289;DHT22;6207;49.308;7.336;2022-10-16T15:06:21;18.80;99.90
12289;DHT22;6207;49.308;7.336;2022-10-16T15:08:48;18.90;99.90
12289;DHT22;6207;49.308;7.336;2022-10-16T15:11:19;19.00;99.90
12289;DHT22;6207;49.308;7.336;2022-10-16T15:13:46;18.90;99.90
12289;DHT22;6207;49.308;7.336;2022-10-16T15:16:15;18.90;99.90
12289;DHT22;6207;49.308;7.336;2022-10-16T15:18:42;18.90;99.90
12289;DHT22;6207;49.308;7.336;2022-10-16T15:21:31;18.90;99.90
12289;DHT22;6207;49.308;7.336;2022-10-16T15:23:59;19.00;99.90
12289;DHT22;6207;49.308;7.336;2022-10-16T15:26:27;19.10;99.90
12289;DHT22;6207;49.308;7.336;2022-10-16T15:28:55;19.10;99.90
12289;DHT22;6207;49.308;7.336;2022-10-16T15:31:23;19.30;99.90
12289;DHT22;6207;49.308;7.336;2022-10-16T15:33:51;19.20;99.90
12289;DHT22;6207;49.308;7.336;2022-10-16T15:36:28;19.30;99.90
12289;DHT22;6207;49.308;7.336;2022-10-16T15:38:55;19.10;99.90
12289;DHT22;6207;49.308;7.336;2022-10-16T15:41:22;19.10;99.90
12289;DHT22;6207;49.308;7.336;2022-10-16T15:43:49;19.00;99.90
12289;DHT22;6207;49.308;7.336;2022-10-16T15:46:22;19.00;99.90
12289;DHT22;6207;49.308;7.336;2022-10-16T15:48:50;19.00;99.90
12289;DHT22;6207;49.308;7.336;2022-10-16T15:51:17;18.90;99.90
12289;DHT22;6207;49.308;7.336;2022-10-16T15:53:44;18.80;99.90
12289;DHT22;6207;49.308;7.336;2022-10-16T15:56:13;19.00;99.90
12289;DHT22;6207;49.308;7.336;2022-10-16T15:58:40;18.80;99.90
12289;DHT22;6207;49.308;7.336;2022-10-16T16:01:07;18.80;99.90
12289;DHT22;6207;49.308;7.336;2022-10-16T16:03:37;18.60;99.90
12289;DHT22;6207;49.308;7.336;2022-10-16T16:06:08;18.70;99.90
12289;DHT22;6207;49.308;7.336;2022-10-16T16:08:35;18.50;99.90
12289;DHT22;6207;49.308;7.336;2022-10-16T16:11:10;18.50;99.90
12289;DHT22;6207;49.308;7.336;2022-10-16T16:13:38;18.50;99.90
12289;DHT22;6207;49.308;7.336;2022-10-16T16:16:07;18.50;99.90
12289;DHT22;6207;49.308;7.336;2022-10-16T16:18:34;18.40;99.90
12289;DHT22;6207;49.308;7.336;2022-10-16T16:21:01;18.30;99.90
12289;DHT22;6207;49.308;7.336;2022-10-16T16:23:28;18.20;99.90
12289;DHT22;6207;49.308;7.336;2022-10-16T16:26:09;18.00;99.90
12289;DHT22;6207;49.308;7.336;2022-10-16T16:28:38;17.80;99.90
12289;DHT22;6207;49.308;7.336;2022-10-16T16:31:05;17.90;99.90
12289;DHT22;6207;49.308;7.336;2022-10-16T16:33:33;17.80;99.90
12289;DHT22;6207;49.308;7.336;2022-10-16T16:36:02;17.80;99.90
12289;DHT22;6207;49.308;7.336;2022-10-16T16:38:29;17.70;99.90
12289;DHT22;6207;49.308;7.336;2022-10-16T16:40:58;18.00;99.90
12289;DHT22;6207;49.308;7.336;2022-10-16T16:43:25;17.60;99.90
12289;DHT22;6207;49.308;7.336;2022-10-16T16:45:53;17.60;99.90
12289;DHT22;6207;49.308;7.336;2022-10-16T16:48:20;17.60;99.90
12289;DHT22;6207;49.308;7.336;2022-10-16T16:50:47;17.60;99.90
12289;DHT22;6207;49.308;7.336;2022-10-16T16:53:14;17.40;99.90
12289;DHT22;6207;49.308;7.336;2022-10-16T16:55:42;17.30;99.90
12289;DHT22;6207;49.308;7.336;2022-10-16T16:58:08;17.20;99.90
12289;DHT22;6207;49.308;7.336;2022-10-16T17:00:35;17.30;99.90
12289;DHT22;6207;49.308;7.336;2022-10-16T17:03:02;16.80;99.90
12289;DHT22;6207;49.308;7.336;2022-10-16T17:05:29;16.80;99.90
12289;DHT22;6207;49.308;7.336;2022-10-16T17:07:55;16.40;99.90
12289;DHT22;6207;49.308;7.336;2022-10-16T17:10:22;16.30;99.90
12289;DHT22;6207;49.308;7.336;2022-10-16T17:12:49;16.20;99.90
12289;DHT22;6207;49.308;7.336;2022-10-16T17:15:16;16.20;99.90
12289;DHT22;6207;49.308;7.336;2022-10-16T17:17:43;16.10;99.90
12289;DHT22;6207;49.308;7.336;2022-10-16T17:20:10;16.00;99.90
12289;DHT22;6207;49.308;7.336;2022-10-16T17:22:37;16.00;99.90
12289;DHT22;6207;49.308;7.336;2022-10-16T17:25:04;15.80;99.90
12289;DHT22;6207;49.308;7.336;2022-10-16T17:27:34;15.80;99.90
12289;DHT22;6207;49.308;7.336;2022-10-16T17:30:03;15.80;99.90
12289;DHT22;6207;49.308;7.336;2022-10-16T17:32:30;15.70;99.90
12289;DHT22;6207;49.308;7.336;2022-10-16T17:34:57;15.70;99.90
12289;DHT22;6207;49.308;7.336;2022-10-16T17:37:23;15.60;99.90
12289;DHT22;6207;49.308;7.336;2022-10-16T17:39:50;16.00;99.90
12289;DHT22;6207;49.308;7.336;2022-10-16T17:42:17;15.50;99.90
12289;DHT22;6207;49.308;7.336;2022-10-16T17:44:44;15.40;99.90
12289;DHT22;6207;49.308;7.336;2022-10-16T17:47:11;15.30;99.90
12289;DHT22;6207;49.308;7.336;2022-10-16T17:49:39;15.30;99.90
12289;DHT22;6207;49.308;7.336;2022-10-16T17:52:06;15.30;99.90
12289;DHT22;6207;49.308;7.336;2022-10-16T17:54:32;15.50;99.90
12289;DHT22;6207;49.308;7.336;2022-10-16T17:56:59;15.20;99.90
12289;DHT22;6207;49.308;7.336;2022-10-16T17:59:26;15.20;99.90
12289;DHT22;6207;49.308;7.336;2022-10-16T18:01:53;15.80;99.90
12289;DHT22;6207;49.308;7.336;2022-10-16T18:04:20;15.10;99.90
12289;DHT22;6207;49.308;7.336;2022-10-16T18:06:47;15.20;99.90
12289;DHT22;6207;49.308;7.336;2022-10-16T18:09:16;15.00;99.90
12289;DHT22;6207;49.308;7.336;2022-10-16T18:11:47;15.00;99.90
12289;DHT22;6207;49.308;7.336;2022-10-16T18:14:27;14.90;99.90
12289;DHT22;6207;49.308;7.336;2022-10-16T18:16:55;15.70;99.90
12289;DHT22;6207;49.308;7.336;2022-10-16T18:19:23;14.90;99.90
12289;DHT22;6207;49.308;7.336;2022-10-16T18:21:50;15.40;99.90
12289;DHT22;6207;49.308;7.336;2022-10-16T18:24:17;15.40;99.90
12289;DHT22;6207;49.308;7.336;2022-10-16T18:26:44;14.90;99.90
12289;DHT22;6207;49.308;7.336;2022-10-16T18:29:12;15.60;99.90
12289;DHT22;6207;49.308;7.336;2022-10-16T18:31:38;14.90;99.90
12289;DHT22;6207;49.308;7.336;2022-10-16T18:34:09;14.90;99.90
12289;DHT22;6207;49.308;7.336;2022-10-16T18:36:35;14.80;99.90
12289;DHT22;6207;49.308;7.336;2022-10-16T18:39:05;14.80;99.90
12289;DHT22;6207;49.308;7.336;2022-10-16T18:41:36;15.40;99.90
12289;DHT22;6207;49.308;7.336;2022-10-16T18:44:04;14.70;99.90
12289;DHT22;6207;49.308;7.336;2022-10-16T18:46:31;14.50;99.90
12289;DHT22;6207;49.308;7.336;2022-10-16T18:48:58;14.50;99.90
12289;DHT22;6207;49.308;7.336;2022-10-16T18:51:39;14.40;99.90
12289;DHT22;6207;49.308;7.336;2022-10-16T18:54:08;14.30;99.90
12289;DHT22;6207;49.308;7.336;2022-10-16T18:56:35;14.30;99.90
12289;DHT22;6207;49.308;7.336;2022-10-16T18:59:04;14.20;99.90
12289;DHT22;6207;49.308;7.336;2022-10-16T19:01:34;14.40;99.90
12289;DHT22;6207;49.308;7.336;2022-10-16T19:04:06;14.10;99.90
12289;DHT22;6207;49.308;7.336;2022-10-16T19:06:35;14.10;99.90
12289;DHT22;6207;49.308;7.336;2022-10-16T19:09:03;14.10;99.90
12289;DHT22;6207;49.308;7.336;2022-10-16T19:11:31;14.00;99.90
12289;DHT22;6207;49.308;7.336;2022-10-16T19:14:00;14.00;99.90
12289;DHT22;6207;49.308;7.336;2022-10-16T19:16:29;14.10;99.90
12289;DHT22;6207;49.308;7.336;2022-10-16T19:18:58;14.10;99.90
12289;DHT22;6207;49.308;7.336;2022-10-16T19:21:27;13.90;99.90
12289;DHT22;6207;49.308;7.336;2022-10-16T19:23:56;14.10;99.90
12289;DHT22;6207;49.308;7.336;2022-10-16T19:26:24;14.30;99.90
12289;DHT22;6207;49.308;7.336;2022-10-16T19:28:54;14.10;99.90
12289;DHT22;6207;49.308;7.336;2022-10-16T19:31:22;14.00;99.90
12289;DHT22;6207;49.308;7.336;2022-10-16T19:33:51;14.60;99.90
12289;DHT22;6207;49.308;7.336;2022-10-16T19:36:24;14.00;99.90
12289;DHT22;6207;49.308;7.336;2022-10-16T19:38:53;14.00;99.90
12289;DHT22;6207;49.308;7.336;2022-10-16T19:41:21;14.60;99.90
12289;DHT22;6207;49.308;7.336;2022-10-16T19:43:50;14.20;99.90
12289;DHT22;6207;49.308;7.336;2022-10-16T19:46:19;13.90;99.90
12289;DHT22;6207;49.308;7.336;2022-10-16T19:48:46;14.30;99.90
12289;DHT22;6207;49.308;7.336;2022-10-16T19:51:16;14.30;99.90
12289;DHT22;6207;49.308;7.336;2022-10-16T19:53:44;13.70;99.90
12289;DHT22;6207;49.308;7.336;2022-10-16T19:56:17;13.80;99.90
12289;DHT22;6207;49.308;7.336;2022-10-16T19:58:45;13.90;99.90
12289;DHT22;6207;49.308;7.336;2022-10-16T20:01:12;14.60;99.90
12289;DHT22;6207;49.308;7.336;2022-10-16T20:03:41;13.90;99.90
12289;DHT22;6207;49.308;7.336;2022-10-16T20:06:08;13.50;99.90
12289;DHT22;6207;49.308;7.336;2022-10-16T20:08:37;13.80;99.90
12289;DHT22;6207;49.308;7.336;2022-10-16T20:11:08;13.50;99.90
12289;DHT22;6207;49.308;7.336;2022-10-16T20:13:36;13.40;99.90
12289;DHT22;6207;49.308;7.336;2022-10-16T20:16:09;13.30;99.90
12289;DHT22;6207;49.308;7.336;2022-10-16T20:18:36;13.70;99.90
12289;DHT22;6207;49.308;7.336;2022-10-16T20:21:09;13.40;99.90
12289;DHT22;6207;49.308;7.336;2022-10-16T20:23:36;13.30;99.90
12289;DHT22;6207;49.308;7.336;2022-10-16T20:26:03;13.30;99.90
12289;DHT22;6207;49.308;7.336;2022-10-16T20:28:30;13.30;99.90
12289;DHT22;6207;49.308;7.336;2022-10-16T20:30:57;14.10;99.90
12289;DHT22;6207;49.308;7.336;2022-10-16T20:33:24;13.20;99.90
12289;DHT22;6207;49.308;7.336;2022-10-16T20:35:51;13.40;99.90
12289;DHT22;6207;49.308;7.336;2022-10-16T20:38:17;13.20;99.90
12289;DHT22;6207;49.308;7.336;2022-10-16T20:40:46;13.20;99.90
12289;DHT22;6207;49.308;7.336;2022-10-16T20:43:16;13.90;99.90
12289;DHT22;6207;49.308;7.336;2022-10-16T20:45:44;13.50;99.90
12289;DHT22;6207;49.308;7.336;2022-10-16T20:48:13;13.60;99.90
12289;DHT22;6207;49.308;7.336;2022-10-16T20:50:41;14.00;99.90
12289;DHT22;6207;49.308;7.336;2022-10-16T20:53:08;14.00;99.90
12289;DHT22;6207;49.308;7.336;2022-10-16T20:55:36;14.10;99.90
12289;DHT22;6207;49.308;7.336;2022-10-16T20:58:04;13.00;99.90
12289;DHT22;6207;49.308;7.336;2022-10-16T21:00:31;13.90;99.90
12289;DHT22;6207;49.308;7.336;2022-10-16T21:02:58;13.00;99.90
12289;DHT22;6207;49.308;7.336;2022-10-16T21:05:25;12.70;99.90
12289;DHT22;6207;49.308;7.336;2022-10-16T21:07:57;13.00;99.90
12289;DHT22;6207;49.308;7.336;2022-10-16T21:10:23;13.50;99.90
12289;DHT22;6207;49.308;7.336;2022-10-16T21:12:54;13.70;99.90
12289;DHT22;6207;49.308;7.336;2022-10-16T21:15:21;13.00;99.90
12289;DHT22;6207;49.308;7.336;2022-10-16T21:17:48;12.90;99.90
12289;DHT22;6207;49.308;7.336;2022-10-16T21:20:15;13.20;99.90
12289;DHT22;6207;49.308;7.336;2022-10-16T21:22:42;13.40;99.90
12289;DHT22;6207;49.308;7.336;2022-10-16T21:25:09;13.50;99.90
12289;DHT22;6207;49.308;7.336;2022-10-16T21:27:39;12.90;99.90
12289;DHT22;6207;49.308;7.336;2022-10-16T21:30:08;12.90;99.90
12289;DHT22;6207;49.308;7.336;2022-10-16T21:32:36;12.80;99.90
12289;DHT22;6207;49.308;7.336;2022-10-16T21:35:04;13.20;99.90
12289;DHT22;6207;49.308;7.336;2022-10-16T21:37:31;12.70;99.90
12289;DHT22;6207;49.308;7.336;2022-10-16T21:39:58;12.70;99.90
12289;DHT22;6207;49.308;7.336;2022-10-16T21:42:25;12.60;99.90
12289;DHT22;6207;49.308;7.336;2022-10-16T21:44:52;12.70;99.90
12289;DHT22;6207;49.308;7.336;2022-10-16T21:47:19;12.60;99.90
12289;DHT22;6207;49.308;7.336;2022-10-16T21:49:46;12.60;99.90
12289;DHT22;6207;49.308;7.336;2022-10-16T21:52:13;12.60;99.90
12289;DHT22;6207;49.308;7.336;2022-10-16T21:54:39;12.50;99.90
12289;DHT22;6207;49.308;7.336;2022-10-16T21:57:06;12.50;99.90
12289;DHT22;6207;49.308;7.336;2022-10-16T21:59:33;12.50;99.90
12289;DHT22;6207;49.308;7.336;2022-10-16T22:02:00;12.50;99.90
12289;DHT22;6207;49.308;7.336;2022-10-16T22:04:28;12.60;99.90
12289;DHT22;6207;49.308;7.336;2022-10-16T22:06:55;12.50;99.90
12289;DHT22;6207;49.308;7.336;2022-10-16T22:09:22;13.00;99.90
12289;DHT22;6207;49.308;7.336;2022-10-16T22:11:49;12.60;99.90
12289;DHT22;6207;49.308;7.336;2022-10-16T22:14:17;12.60;99.90
12289;DHT22;6207;49.308;7.336;2022-10-16T22:16:45;12.60;99.90
12289;DHT22;6207;49.308;7.336;2022-10-16T22:19:15;12.60;99.90
12289;DHT22;6207;49.308;7.336;2022-10-16T22:21:43;12.70;99.90
12289;DHT22;6207;49.308;7.336;2022-10-16T22:24:14;12.60;99.90
12289;DHT22;6207;49.308;7.336;2022-10-16T22:26:41;12.60;99.90
12289;DHT22;6207;49.308;7.336;2022-10-16T22:29:11;12.60;99.90
12289;DHT22;6207;49.308;7.336;2022-10-16T22:31:38;12.60;99.90
12289;DHT22;6207;49.308;7.336;2022-10-16T22:34:05;12.60;99.90
12289;DHT22;6207;49.308;7.336;2022-10-16T22:36:32;12.60;99.90
12289;DHT22;6207;49.308;7.336;2022-10-16T22:38:59;12.60;99.90
12289;DHT22;6207;49.308;7.336;2022-10-16T22:41:26;12.80;99.90
12289;DHT22;6207;49.308;7.336;2022-10-16T22:43:53;12.60;99.90
12289;DHT22;6207;49.308;7.336;2022-10-16T22:46:25;13.40;99.90
12289;DHT22;6207;49.308;7.336;2022-10-16T22:48:52;12.60;99.90
12289;DHT22;6207;49.308;7.336;2022-10-16T22:51:22;12.70;99.90
12289;DHT22;6207;49.308;7.336;2022-10-16T22:53:49;12.40;99.90
12289;DHT22;6207;49.308;7.336;2022-10-16T22:56:18;12.50;99.90
12289;DHT22;6207;49.308;7.336;2022-10-16T22:58:46;12.50;99.90
12289;DHT22;6207;49.308;7.336;2022-10-16T23:01:26;11.90;99.90
12289;DHT22;6207;49.308;7.336;2022-10-16T23:03:53;12.50;99.90
12289;DHT22;6207;49.308;7.336;2022-10-16T23:06:20;12.30;99.90
12289;DHT22;6207;49.308;7.336;2022-10-16T23:08:54;12.50;99.90
12289;DHT22;6207;49.308;7.336;2022-10-16T23:11:22;12.40;99.90
12289;DHT22;6207;49.308;7.336;2022-10-16T23:13:49;12.30;99.90
12289;DHT22;6207;49.308;7.336;2022-10-16T23:16:17;12.30;99.90
12289;DHT22;6207;49.308;7.336;2022-10-16T23:18:45;12.30;99.90
12289;DHT22;6207;49.308;7.336;2022-10-16T23:21:17;12.30;99.90
12289;DHT22;6207;49.308;7.336;2022-10-16T23:23:44;12.40;99.90
12289;DHT22;6207;49.308;7.336;2022-10-16T23:26:17;12.30;99.90
12289;DHT22;6207;49.308;7.336;2022-10-16T23:28:44;12.40;99.90
12289;DHT22;6207;49.308;7.336;2022-10-16T23:31:12;12.00;99.90
12289;DHT22;6207;49.308;7.336;2022-10-16T23:33:39;12.30;99.90
12289;DHT22;6207;49.308;7.336;2022-10-16T23:36:09;12.20;99.90
12289;DHT22;6207;49.308;7.336;2022-10-16T23:38:35;12.20;99.90
12289;DHT22;6207;49.308;7.336;2022-10-16T23:41:02;11.90;99.90
12289;DHT22;6207;49.308;7.336;2022-10-16T23:43:30;12.10;99.90
12289;DHT22;6207;49.308;7.336;2022-10-16T23:45:56;12.10;99.90
12289;DHT22;6207;49.308;7.336;2022-10-16T23:48:23;12.10;99.90
12289;DHT22;6207;49.308;7.336;2022-10-16T23:50:50;12.10;99.90
12289;DHT22;6207;49.308;7.336;2022-10-16T23:53:17;12.00;99.90
12289;DHT22;6207;49.308;7.336;2022-10-16T23:55:44;12.00;99.90
12289;DHT22;6207;49.308;7.336;2022-10-16T23:58:11;11.90;99.90
